Hortensia, Argentina
Current Conditions -  °F | °C
As of 7:00 PM on Monday 24 Nov 2014 (Local Time) from SAEZ Reporting Station
Broken Clouds Broken Clouds  
Wind Chill: 72°   Ceiling: 9000
Heat Index: 72°   Visibility: 6mi
Dew Point: 64°   Wind: 2mph
Humidity: 78%   Direction: NA
Pressure: 29.83"   Gusts: NA
Location:  35.93°S, 61.28°W
Report Text: SAEZ 242200Z VRB02KT 9999 FEW012 SCT020 BKN090 22/18 Q1010
Loading
Personal Weather Stations






























Interactive Weather Map New forecast layout! Learn more

10-Day Weather Forecast

Advertisements
Track Severe Weather on mobile